Frej — SBPT — position and weather

sailwx.info

Track history (hours):
 
Tides and Currents Weather Stations Pressure Air Temp Water Temp Dewpoint Dewpoint Depression Visibility Wind Speed Wind Dir Waves Ship Positions

Frej

Last reported at 2017-Aug-23 01:00 UTC. Time now 2017-Aug-23 02:10 UTC.
Position N 65°36' E 022°12'.

Length 108 m; draft 7.2 m.

Type: Other ship. MMSI: 265068000.

Wind from 360 at 6 knots

Barometer 1018.5 mb
Air temperature 6.1 ° C

Date/timePositionNaut miles runAvg speedWind from/ knotsBaromVisibWave heightAir tempDewpointWater temp
2017-Aug-23 01:00N 65°36' E 022°12'0 0.0 360 / 61018.5 6.1
2017-Aug-23 00:00N 65°36' E 022°12'0 0.0 360 / 101018.6 6.8
2017-Aug-22 21:00N 65°36' E 022°12'0 0.0 1018.8 9.3
2017-Aug-22 20:00N 65°36' E 022°12'0 0.0 350 / 81018.8 10.3
2017-Aug-22 19:00N 65°36' E 022°12'0 0.0 360 / 101018.7 11.5
2017-Aug-22 18:00N 65°36' E 022°12'0 0.0 020 / 101018.7 12.3
2017-Aug-22 16:00N 65°36' E 022°12'0 0.0 350 / 101017.9 13.6
2017-Aug-22 15:00N 65°36' E 022°12'0 0.0 1017.8 14.1
2017-Aug-22 14:00N 65°36' E 022°12'0 0.0 010 / 171017.8 14.2
2017-Aug-22 13:00N 65°36' E 022°12'0 0.0 1017.8 14.4
2017-Aug-22 12:00N 65°36' E 022°12'0 0.0 360 / 161017.7 14.4
2017-Aug-22 10:00N 65°36' E 022°12'0 0.0 340 / 191017.6 12.8
2017-Aug-22 09:00N 65°36' E 022°12'0 0.0 360 / 211017.6 11.6
2017-Aug-22 06:00N 65°36' E 022°12'0 0.0 360 / 171016.4 10.3
2017-Aug-22 03:00N 65°36' E 022°12'0 0.0 340 / 81015.3 10.5
2017-Aug-22 00:00N 65°36' E 022°12'0 0.0 350 / 101014.0 11.1
2017-Aug-21 21:00N 65°36' E 022°12'0 0.0 350 / 121013.1 11.4
2017-Aug-21 19:00N 65°36' E 022°12'0 0.0 340 / 101012.3 11.9
2017-Aug-21 18:00N 65°36' E 022°12'0 0.0 1011.8 12.4
2017-Aug-21 15:00N 65°36' E 022°12'0 0.0 360 / 101010.6 13.5
2017-Aug-21 12:00N 65°36' E 022°12'0 0.0 180 / 21009.4 15.8
2017-Aug-21 09:00N 65°36' E 022°12'0 0.0 190 / 81008.3 14.4
2017-Aug-21 07:00N 65°36' E 022°12'0 0.0 220 / 21007.0 13.6
2017-Aug-21 06:00N 65°36' E 022°12'0 0.0 190 / 61006.4 13.1
2017-Aug-21 05:00N 65°36' E 022°12'0 0.0 190 / 81005.9 12.8
2017-Aug-21 04:00N 65°36' E 022°12'0 0.0 190 / 101005.4 12.0
2017-Aug-21 03:00N 65°36' E 022°12'0 0.0 200 / 81004.8 11.9
2017-Aug-21 00:00N 65°36' E 022°12'0 0.0 200 / 81004.0 12.4
2017-Aug-20 23:00N 65°36' E 022°12'0 0.0 190 / 81003.6 12.7
2017-Aug-20 22:00N 65°36' E 022°12'0 0.0 210 / 101003.4 12.9
2017-Aug-20 21:00N 65°36' E 022°12'0 0.0 200 / 141003.1 13.2
2017-Aug-20 20:00N 65°36' E 022°12'0 0.0 210 / 141002.9 12.9
2017-Aug-20 18:00N 65°36' E 022°12'0 0.0 210 / 161002.6 13.3
2017-Aug-20 15:00N 65°36' E 022°12'0 0.0 200 / 231001.9 13.3
2017-Aug-20 12:00N 65°36' E 022°12'0 0.0 190 / 331001.0 14.4
2017-Aug-20 09:00N 65°36' E 022°12'0 0.0 180 / 291000.2 14.1
2017-Aug-20 06:00N 65°36' E 022°12'0 0.0 210 / 25999.7 13.5
2017-Aug-20 05:00N 65°36' E 022°12'0 0.0 190 / 23999.3 13.3
2017-Aug-20 03:00N 65°36' E 022°12'0 0.0 190 / 23998.8 13.6
2017-Aug-20 00:00N 65°36' E 022°12'0 0.0 180 / 21997.3 15.1
2017-Aug-19 22:00N 65°36' E 022°12'0 0.0 170 / 21997.9 16.0
2017-Aug-19 21:00N 65°36' E 022°12'0 0.0 100 / 14999.0 15.2
2017-Aug-19 20:00N 65°36' E 022°12'0 0.0 080 / 81000.1 15.6
2017-Aug-19 18:00N 65°36' E 022°12'0 0.0 040 / 61002.4 14.9
2017-Aug-19 16:00N 65°36' E 022°12'0 0.0 060 / 61004.8 14.7
2017-Aug-19 15:00N 65°36' E 022°12'0 0.0 070 / 21005.7 15.2
2017-Aug-19 12:00N 65°36' E 022°12'0 0.0 160 / 81007.3 15.4
2017-Aug-19 10:00N 65°36' E 022°12'0 0.0 160 / 121008.2 15.2
2017-Aug-19 09:00N 65°36' E 022°12'0 0.0 150 / 121008.3 15.1
2017-Aug-19 07:00N 65°36' E 022°12'0 0.0 160 / 121008.6 14.6
2017-Aug-19 06:00N 65°36' E 022°12'0 0.0 170 / 81009.0 14.7
2017-Aug-19 05:00N 65°36' E 022°12'0 0.0 190 / 101009.0 14.0
2017-Aug-19 03:00N 65°36' E 022°12'2 1.0 190 / 41008.7 13.6
2017-Aug-19 01:01N 65°34' E 022°10'0 0.0
2017-Aug-19 00:58N 65°34' E 022°10'0 0.0
2017-Aug-19 00:25N 65°34' E 022°10'2 4.5
2017-Aug-19 00:00N 65°36' E 022°12'215.0 140 / 61009.4 14.0
2017-Aug-18 23:52N 65°34' E 022°10'0 0.0
2017-Aug-18 23:28N 65°34' E 022°10'2 4.0
2017-Aug-18 23:00N 65°36' E 022°12'273.2 180 / 61009.6 14.4
2017-Aug-18 22:58N 65°34' E 022°10'0 0.0
2017-Aug-18 22:22N 65°34' E 022°10'2 5.0
2017-Aug-18 22:00N 65°36' E 022°12'210.7 200 / 81009.8 14.5
2017-Aug-18 21:49N 65°34' E 022°10'0 0.0
2017-Aug-18 21:28N 65°34' E 022°10'2 4.0
2017-Aug-18 21:00N 65°36' E 022°12'274.0 140 / 101010.1 14.8
2017-Aug-18 20:58N 65°34' E 022°10'0 0.0
2017-Aug-18 20:28N 65°34' E 022°10'0 0.0
2017-Aug-18 19:55N 65°34' E 022°10'2 1.0
2017-Aug-18 18:00N 65°36' E 022°12'0 0.0 130 / 41010.9 15.4
2017-Aug-18 15:00N 65°36' E 022°12'0 0.0 170 / 141011.8 15.2
2017-Aug-18 12:00N 65°36' E 022°12'0 0.0 180 / 121013.2 16.1
2017-Aug-18 09:00N 65°36' E 022°12'0 0.0 130 / 81014.4 16.3
2017-Aug-18 08:00N 65°36' E 022°12'0 0.0 150 / 101014.9 15.9
2017-Aug-18 07:00N 65°36' E 022°12'0 0.0 110 / 61014.9 15.5
2017-Aug-18 06:00N 65°36' E 022°12'0 0.0 120 / 121015.1 14.9
2017-Aug-18 03:00N 65°36' E 022°12'2 1.1 060 / 61016.1 12.6
2017-Aug-18 01:14N 65°34' E 022°10'0 0.0
2017-Aug-18 00:58N 65°34' E 022°10'0 0.0
2017-Aug-18 00:29N 65°34' E 022°10'2 3.9
2017-Aug-18 00:00N 65°36' E 022°12'224.9 140 / 41017.0 12.9
2017-Aug-17 23:55N 65°34' E 022°10'0 0.0
2017-Aug-17 23:08N 65°34' E 022°10'213.9
2017-Aug-17 23:00N 65°36' E 022°12'273.2 150 / 41017.3 12.8
2017-Aug-17 22:58N 65°34' E 022°10'0 0.0
2017-Aug-17 22:28N 65°34' E 022°10'2 4.0
2017-Aug-17 22:00N 65°36' E 022°12'272.5 150 / 81017.5 13.1
2017-Aug-17 21:58N 65°34' E 022°10'2 1.9
2017-Aug-17 21:00N 65°36' E 022°12'2 0.8 140 / 61017.3 13.5
2017-Aug-17 18:34N 65°34' E 022°10'0 0.0
2017-Aug-17 18:28N 65°34' E 022°10'0 0.0
2017-Aug-17 18:00N 65°34' E 022°10'2126.1
2017-Aug-17 18:00N 65°36' E 022°12'2 3.8 170 / 81017.8 14.8
2017-Aug-17 17:30N 65°34' E 022°10'0 0.0
2017-Aug-17 16:58N 65°34' E 022°10'0 0.0
2017-Aug-17 16:29N 65°34' E 022°10'0 0.0
2017-Aug-17 15:59N 65°34' E 022°10'0 0.0
2017-Aug-17 15:28N 65°34' E 022°10'2 4.0
2017-Aug-17 15:00N 65°36' E 022°12'274.0 190 / 161018.2 16.0
2017-Aug-17 14:58N 65°34' E 022°10'0 0.0
2017-Aug-17 14:29N 65°34' E 022°10'2 3.8
2017-Aug-17 14:00N 65°36' E 022°12'2756.8 180 / 191018.3 15.9
2017-Aug-17 13:59N 65°34' E 022°10'0 0.0
2017-Aug-17 13:29N 65°34' E 022°10'0 0.0
2017-Aug-17 13:01N 65°34' E 022°10'2113.5
2017-Aug-17 13:00N 65°36' E 022°12'2 3.9 190 / 161018.2 17.2
2017-Aug-17 12:30N 65°34' E 022°10'2 3.7
2017-Aug-17 12:00N 65°36' E 022°12'277.4 260 / 81018.2 18.1
2017-Aug-17 11:58N 65°34' E 022°10'2 1.9
2017-Aug-17 11:00N 65°36' E 022°12'2 1.3 230 / 101018.0 17.3
2017-Aug-17 09:35N 65°34' E 022°10'0 0.0
2017-Aug-17 09:26N 65°34' E 022°10'2 4.2
2017-Aug-17 09:00N 65°36' E 022°12'226.8 230 / 101018.1 16.1
2017-Aug-17 08:55N 65°34' E 022°10'0 0.0
2017-Aug-17 08:28N 65°34' E 022°10'0 0.0
2017-Aug-17 07:58N 65°34' E 022°10'0 0.0
2017-Aug-17 07:29N 65°34' E 022°10'0 0.0
2017-Aug-17 06:58N 65°34' E 022°10'0 0.0
2017-Aug-17 06:29N 65°34' E 022°10'2 3.9
2017-Aug-17 06:00N 65°36' E 022°12'274.0 290 / 61017.1 12.9
2017-Aug-17 05:58N 65°34' E 022°10'2 0.6
2017-Aug-17 03:00N 65°36' E 022°12'0 0.0 250 / 81014.7 10.6
2017-Aug-17 00:00N 65°36' E 022°12'0 0.0 280 / 161012.2 13.3
2017-Aug-16 21:00N 65°36' E 022°12'0 0.0 200 / 161011.3 14.0
2017-Aug-16 18:00N 65°36' E 022°12'0 0.0 170 / 161013.3 14.3
2017-Aug-16 17:00N 65°36' E 022°12'0 0.0 180 / 141014.0 14.6
2017-Aug-16 15:00N 65°36' E 022°12'0 0.0 150 / 191014.7 14.1
2017-Aug-16 14:00N 65°36' E 022°12'0 0.0 180 / 231015.3 15.4
2017-Aug-16 12:00N 65°36' E 022°12'0 0.0 170 / 191016.2 14.6
2017-Aug-16 10:00N 65°36' E 022°12'0 0.0 190 / 171017.0 14.6
2017-Aug-16 09:00N 65°36' E 022°12'0 0.0 180 / 81017.3 14.7
2017-Aug-16 08:00N 65°36' E 022°12'0 0.0 190 / 141017.5 13.3
2017-Aug-16 06:00N 65°36' E 022°12'0 0.0 180 / 121017.4 12.7
2017-Aug-16 05:00N 65°36' E 022°12'0 0.0 170 / 101017.5 13.3
2017-Aug-16 04:00N 65°36' E 022°12'0 0.0 180 / 101017.5 13.2
2017-Aug-16 03:00N 65°36' E 022°12'2 2.4 170 / 101017.9 13.1
2017-Aug-16 02:13N 65°34' E 022°10'2 0.9
2017-Aug-16 00:00N 65°36' E 022°12'0 0.0 180 / 81018.2 13.7
2017-Aug-15 23:00N 65°36' E 022°12'0 0.0 190 / 41018.6 13.9
2017-Aug-15 22:00N 65°36' E 022°12'0 0.0 200 / 101018.5 14.0
2017-Aug-15 21:00N 65°36' E 022°12'0 0.0 190 / 121018.3 14.4
2017-Aug-15 19:00N 65°36' E 022°12'0 0.0 180 / 101019.0 15.1
2017-Aug-15 18:00N 65°36' E 022°12'0 0.0 150 / 41019.4 14.9
2017-Aug-15 16:00N 65°36' E 022°12'0 0.0 160 / 101019.8 15.0
2017-Aug-15 15:00N 65°36' E 022°12'2 1.9 160 / 121020.3 14.7
2017-Aug-15 14:01N 65°34' E 022°10'0 0.0
2017-Aug-15 13:58N 65°34' E 022°10'0 0.0
2017-Aug-15 12:40N 65°34' E 022°10'0 0.0
2017-Aug-15 12:28N 65°34' E 022°10'2 4.0
2017-Aug-15 12:00N 65°36' E 022°12'210.8 210 / 161021.0 15.7
2017-Aug-15 11:49N 65°34' E 022°10'0 0.0
2017-Aug-15 11:28N 65°34' E 022°10'2 4.0
2017-Aug-15 11:00N 65°36' E 022°12'224.9 260 / 81021.2 15.2
2017-Aug-15 10:55N 65°34' E 022°10'0 0.0
2017-Aug-15 10:28N 65°34' E 022°10'2 1.3
2017-Aug-15 09:00N 65°36' E 022°12'0 0.0 240 / 101021.1 14.6
2017-Aug-15 08:00N 65°36' E 022°12'0 0.0 220 / 101020.9 13.6
2017-Aug-15 07:00N 65°36' E 022°12'0 0.0 250 / 61021.0 12.6
2017-Aug-15 06:00N 65°36' E 022°12'0 0.0 230 / 61020.8 12.0
2017-Aug-15 05:00N 65°36' E 022°12'0 0.0 220 / 101020.6 10.8
2017-Aug-15 04:00N 65°36' E 022°12'0 0.0 210 / 61020.0 10.4
2017-Aug-15 03:00N 65°36' E 022°12'0 0.0 260 / 81019.8 9.9
2017-Aug-15 02:00N 65°36' E 022°12'0 0.0 240 / 81019.3 10.2
2017-Aug-15 01:00N 65°36' E 022°12'0 0.0 270 / 81018.9 10.9
2017-Aug-15 00:00N 65°36' E 022°12'0 0.0 270 / 81018.6 11.6
2017-Aug-14 23:00N 65°36' E 022°12'0 0.0 250 / 81018.1 12.1
2017-Aug-14 22:00N 65°36' E 022°12'0 0.0 260 / 41017.8 12.6
2017-Aug-14 21:00N 65°36' E 022°12'0 0.0 240 / 121017.1 13.3
2017-Aug-14 20:00N 65°36' E 022°12'0 0.0 250 / 81016.5 13.7
2017-Aug-14 19:00N 65°36' E 022°12'0 0.0 250 / 61015.8 15.1
2017-Aug-14 18:00N 65°36' E 022°12'0 0.0 290 / 141015.0 16.5
2017-Aug-14 17:00N 65°36' E 022°12'0 0.0 290 / 161014.2 17.0
2017-Aug-14 16:00N 65°36' E 022°12'0 0.0 280 / 161013.7 17.2
2017-Aug-14 15:00N 65°36' E 022°12'0 0.0 290 / 171013.1 17.2
2017-Aug-14 14:00N 65°36' E 022°12'0 0.0 280 / 141012.5 17.3
2017-Aug-14 13:00N 65°36' E 022°12'0 0.0 280 / 191012.0 16.9
2017-Aug-14 12:00N 65°36' E 022°12'0 0.0 290 / 191011.3 16.6
2017-Aug-14 11:00N 65°36' E 022°12'0 0.0 260 / 141010.3 16.2
2017-Aug-14 10:00N 65°36' E 022°12'0 0.0 290 / 171009.6 16.3
2017-Aug-14 09:00N 65°36' E 022°12'0 0.0 290 / 161008.7 15.6
2017-Aug-14 06:00N 65°36' E 022°12'0 0.0 260 / 121006.1 12.3
2017-Aug-14 03:00N 65°36' E 022°12'0 0.0 230 / 121004.8 9.8
2017-Aug-14 02:00N 65°36' E 022°12'0 0.0 230 / 81004.5 9.9
2017-Aug-14 01:00N 65°36' E 022°12'0 0.0 240 / 101004.3 10.4
2017-Aug-14 00:00N 65°36' E 022°12'0 0.0 230 / 61004.1 10.9
2017-Aug-13 23:00N 65°36' E 022°12'0 0.0 250 / 101004.0 11.5
2017-Aug-13 22:00N 65°36' E 022°12'0 0.0 260 / 81003.5 12.1
2017-Aug-13 21:00N 65°36' E 022°12'0 0.0 240 / 101002.9 13.1
2017-Aug-13 20:00N 65°36' E 022°12'0 0.0 260 / 81002.5 14.4
2017-Aug-13 19:00N 65°36' E 022°12'0 0.0 250 / 101001.9 15.3
2017-Aug-13 18:00N 65°36' E 022°12'0 0.0 250 / 81001.3 16.1
2017-Aug-13 17:00N 65°36' E 022°12'0 0.0 280 / 121000.8 16.9
2017-Aug-13 16:00N 65°36' E 022°12'0 0.0 290 / 141000.2 16.7
2017-Aug-13 15:00N 65°36' E 022°12'0 0.0 290 / 14999.9 16.9
2017-Aug-13 14:00N 65°36' E 022°12'0 0.0 290 / 14999.2 17.5
2017-Aug-13 13:00N 65°36' E 022°12'0 0.0 280 / 16998.7 17.4
2017-Aug-13 12:00N 65°36' E 022°12'0 0.0 300 / 10998.4 16.9
2017-Aug-13 09:00N 65°36' E 022°12'0 0.0 290 / 16997.1 14.3
2017-Aug-13 07:00N 65°36' E 022°12'0 0.0 310 / 17996.5 13.5
2017-Aug-13 06:00N 65°36' E 022°12'0 0.0 310 / 16996.2 13.1
2017-Aug-13 04:00N 65°36' E 022°12'0 0.0 300 / 12996.1 13.5
2017-Aug-13 03:00N 65°36' E 022°12'0 0.0 310 / 10995.9 13.6
2017-Aug-13 02:00N 65°36' E 022°12'   300 / 19996.5 14.8
Track history (hours):
 
Tides and Currents Weather Stations Pressure Air Temp Water Temp Dewpoint Dewpoint Depression Visibility Wind Speed Wind Dir Waves Ship Positions

Frej

Last reported at 2017-Aug-23 01:00 UTC. Time now 2017-Aug-23 02:10 UTC.
Position N 65°36' E 022°12'.

Length 108 m; draft 7.2 m.

Type: Other ship. MMSI: 265068000.

Wind from 360 at 6 knots

Barometer 1018.5 mb
Air temperature 6.1 ° C

Date/timePositionNaut miles runAvg speedWind from/ knotsBaromVisibWave heightAir tempDewpointWater temp
2017-Aug-23 01:00N 65°36' E 022°12'0 0.0 360 / 61018.5 6.1
2017-Aug-23 00:00N 65°36' E 022°12'0 0.0 360 / 101018.6 6.8
2017-Aug-22 21:00N 65°36' E 022°12'0 0.0 1018.8 9.3
2017-Aug-22 20:00N 65°36' E 022°12'0 0.0 350 / 81018.8 10.3
2017-Aug-22 19:00N 65°36' E 022°12'0 0.0 360 / 101018.7 11.5
2017-Aug-22 18:00N 65°36' E 022°12'0 0.0 020 / 101018.7 12.3
2017-Aug-22 16:00N 65°36' E 022°12'0 0.0 350 / 101017.9 13.6
2017-Aug-22 15:00N 65°36' E 022°12'0 0.0 1017.8 14.1
2017-Aug-22 14:00N 65°36' E 022°12'0 0.0 010 / 171017.8 14.2
2017-Aug-22 13:00N 65°36' E 022°12'0 0.0 1017.8 14.4
2017-Aug-22 12:00N 65°36' E 022°12'0 0.0 360 / 161017.7 14.4
2017-Aug-22 10:00N 65°36' E 022°12'0 0.0 340 / 191017.6 12.8
2017-Aug-22 09:00N 65°36' E 022°12'0 0.0 360 / 211017.6 11.6
2017-Aug-22 06:00N 65°36' E 022°12'0 0.0 360 / 171016.4 10.3
2017-Aug-22 03:00N 65°36' E 022°12'0 0.0 340 / 81015.3 10.5
2017-Aug-22 00:00N 65°36' E 022°12'0 0.0 350 / 101014.0 11.1
2017-Aug-21 21:00N 65°36' E 022°12'0 0.0 350 / 121013.1 11.4
2017-Aug-21 19:00N 65°36' E 022°12'0 0.0 340 / 101012.3 11.9
2017-Aug-21 18:00N 65°36' E 022°12'0 0.0 1011.8 12.4
2017-Aug-21 15:00N 65°36' E 022°12'0 0.0 360 / 101010.6 13.5
2017-Aug-21 12:00N 65°36' E 022°12'0 0.0 180 / 21009.4 15.8
2017-Aug-21 09:00N 65°36' E 022°12'0 0.0 190 / 81008.3 14.4
2017-Aug-21 07:00N 65°36' E 022°12'0 0.0 220 / 21007.0 13.6
2017-Aug-21 06:00N 65°36' E 022°12'0 0.0 190 / 61006.4 13.1
2017-Aug-21 05:00N 65°36' E 022°12'0 0.0 190 / 81005.9 12.8
2017-Aug-21 04:00N 65°36' E 022°12'0 0.0 190 / 101005.4 12.0
2017-Aug-21 03:00N 65°36' E 022°12'0 0.0 200 / 81004.8 11.9
2017-Aug-21 00:00N 65°36' E 022°12'0 0.0 200 / 81004.0 12.4
2017-Aug-20 23:00N 65°36' E 022°12'0 0.0 190 / 81003.6 12.7
2017-Aug-20 22:00N 65°36' E 022°12'0 0.0 210 / 101003.4 12.9
2017-Aug-20 21:00N 65°36' E 022°12'0 0.0 200 / 141003.1 13.2
2017-Aug-20 20:00N 65°36' E 022°12'0 0.0 210 / 141002.9 12.9
2017-Aug-20 18:00N 65°36' E 022°12'0 0.0 210 / 161002.6 13.3
2017-Aug-20 15:00N 65°36' E 022°12'0 0.0 200 / 231001.9 13.3
2017-Aug-20 12:00N 65°36' E 022°12'0 0.0 190 / 331001.0 14.4
2017-Aug-20 09:00N 65°36' E 022°12'0 0.0 180 / 291000.2 14.1
2017-Aug-20 06:00N 65°36' E 022°12'0 0.0 210 / 25999.7 13.5
2017-Aug-20 05:00N 65°36' E 022°12'0 0.0 190 / 23999.3 13.3
2017-Aug-20 03:00N 65°36' E 022°12'0 0.0 190 / 23998.8 13.6
2017-Aug-20 00:00N 65°36' E 022°12'0 0.0 180 / 21997.3 15.1
2017-Aug-19 22:00N 65°36' E 022°12'0 0.0 170 / 21997.9 16.0
2017-Aug-19 21:00N 65°36' E 022°12'0 0.0 100 / 14999.0 15.2
2017-Aug-19 20:00N 65°36' E 022°12'0 0.0 080 / 81000.1 15.6
2017-Aug-19 18:00N 65°36' E 022°12'0 0.0 040 / 61002.4 14.9
2017-Aug-19 16:00N 65°36' E 022°12'0 0.0 060 / 61004.8 14.7
2017-Aug-19 15:00N 65°36' E 022°12'0 0.0 070 / 21005.7 15.2
2017-Aug-19 12:00N 65°36' E 022°12'0 0.0 160 / 81007.3 15.4
2017-Aug-19 10:00N 65°36' E 022°12'0 0.0 160 / 121008.2 15.2
2017-Aug-19 09:00N 65°36' E 022°12'0 0.0 150 / 121008.3 15.1
2017-Aug-19 07:00N 65°36' E 022°12'0 0.0 160 / 121008.6 14.6
2017-Aug-19 06:00N 65°36' E 022°12'0 0.0 170 / 81009.0 14.7
2017-Aug-19 05:00N 65°36' E 022°12'0 0.0 190 / 101009.0 14.0
2017-Aug-19 03:00N 65°36' E 022°12'2 1.0 190 / 41008.7 13.6
2017-Aug-19 01:01N 65°34' E 022°10'0 0.0
2017-Aug-19 00:58N 65°34' E 022°10'0 0.0
2017-Aug-19 00:25N 65°34' E 022°10'2 4.5
2017-Aug-19 00:00N 65°36' E 022°12'215.0 140 / 61009.4 14.0
2017-Aug-18 23:52N 65°34' E 022°10'0 0.0
2017-Aug-18 23:28N 65°34' E 022°10'2 4.0
2017-Aug-18 23:00N 65°36' E 022°12'273.2 180 / 61009.6 14.4
2017-Aug-18 22:58N 65°34' E 022°10'0 0.0
2017-Aug-18 22:22N 65°34' E 022°10'2 5.0
2017-Aug-18 22:00N 65°36' E 022°12'210.7 200 / 81009.8 14.5
2017-Aug-18 21:49N 65°34' E 022°10'0 0.0
2017-Aug-18 21:28N 65°34' E 022°10'2 4.0
2017-Aug-18 21:00N 65°36' E 022°12'274.0 140 / 101010.1 14.8
2017-Aug-18 20:58N 65°34' E 022°10'0 0.0
2017-Aug-18 20:28N 65°34' E 022°10'0 0.0
2017-Aug-18 19:55N 65°34' E 022°10'2 1.0
2017-Aug-18 18:00N 65°36' E 022°12'0 0.0 130 / 41010.9 15.4
2017-Aug-18 15:00N 65°36' E 022°12'0 0.0 170 / 141011.8 15.2
2017-Aug-18 12:00N 65°36' E 022°12'0 0.0 180 / 121013.2 16.1
2017-Aug-18 09:00N 65°36' E 022°12'0 0.0 130 / 81014.4 16.3
2017-Aug-18 08:00N 65°36' E 022°12'0 0.0 150 / 101014.9 15.9
2017-Aug-18 07:00N 65°36' E 022°12'0 0.0 110 / 61014.9 15.5
2017-Aug-18 06:00N 65°36' E 022°12'0 0.0 120 / 121015.1 14.9
2017-Aug-18 03:00N 65°36' E 022°12'2 1.1 060 / 61016.1 12.6
2017-Aug-18 01:14N 65°34' E 022°10'0 0.0
2017-Aug-18 00:58N 65°34' E 022°10'0 0.0
2017-Aug-18 00:29N 65°34' E 022°10'2 3.9
2017-Aug-18 00:00N 65°36' E 022°12'224.9 140 / 41017.0 12.9
2017-Aug-17 23:55N 65°34' E 022°10'0 0.0
2017-Aug-17 23:08N 65°34' E 022°10'213.9
2017-Aug-17 23:00N 65°36' E 022°12'273.2 150 / 41017.3 12.8
2017-Aug-17 22:58N 65°34' E 022°10'0 0.0
2017-Aug-17 22:28N 65°34' E 022°10'2 4.0
2017-Aug-17 22:00N 65°36' E 022°12'272.5 150 / 81017.5 13.1
2017-Aug-17 21:58N 65°34' E 022°10'2 1.9
2017-Aug-17 21:00N 65°36' E 022°12'2 0.8 140 / 61017.3 13.5
2017-Aug-17 18:34N 65°34' E 022°10'0 0.0
2017-Aug-17 18:28N 65°34' E 022°10'0 0.0
2017-Aug-17 18:00N 65°34' E 022°10'2126.1
2017-Aug-17 18:00N 65°36' E 022°12'2 3.8 170 / 81017.8 14.8
2017-Aug-17 17:30N 65°34' E 022°10'0 0.0
2017-Aug-17 16:58N 65°34' E 022°10'0 0.0
2017-Aug-17 16:29N 65°34' E 022°10'0 0.0
2017-Aug-17 15:59N 65°34' E 022°10'0 0.0
2017-Aug-17 15:28N 65°34' E 022°10'2 4.0
2017-Aug-17 15:00N 65°36' E 022°12'274.0 190 / 161018.2 16.0
2017-Aug-17 14:58N 65°34' E 022°10'0 0.0
2017-Aug-17 14:29N 65°34' E 022°10'2 3.8
2017-Aug-17 14:00N 65°36' E 022°12'2756.8 180 / 191018.3 15.9
2017-Aug-17 13:59N 65°34' E 022°10'0 0.0
2017-Aug-17 13:29N 65°34' E 022°10'0 0.0
2017-Aug-17 13:01N 65°34' E 022°10'2113.5
2017-Aug-17 13:00N 65°36' E 022°12'2 3.9 190 / 161018.2 17.2
2017-Aug-17 12:30N 65°34' E 022°10'2 3.7
2017-Aug-17 12:00N 65°36' E 022°12'277.4 260 / 81018.2 18.1
2017-Aug-17 11:58N 65°34' E 022°10'2 1.9
2017-Aug-17 11:00N 65°36' E 022°12'2 1.3 230 / 101018.0 17.3
2017-Aug-17 09:35N 65°34' E 022°10'0 0.0
2017-Aug-17 09:26N 65°34' E 022°10'2 4.2
2017-Aug-17 09:00N 65°36' E 022°12'226.8 230 / 101018.1 16.1
2017-Aug-17 08:55N 65°34' E 022°10'0 0.0
2017-Aug-17 08:28N 65°34' E 022°10'0 0.0
2017-Aug-17 07:58N 65°34' E 022°10'0 0.0
2017-Aug-17 07:29N 65°34' E 022°10'0 0.0
2017-Aug-17 06:58N 65°34' E 022°10'0 0.0
2017-Aug-17 06:29N 65°34' E 022°10'2 3.9
2017-Aug-17 06:00N 65°36' E 022°12'274.0 290 / 61017.1 12.9
2017-Aug-17 05:58N 65°34' E 022°10'2 0.6
2017-Aug-17 03:00N 65°36' E 022°12'0 0.0 250 / 81014.7 10.6
2017-Aug-17 00:00N 65°36' E 022°12'0 0.0 280 / 161012.2 13.3
2017-Aug-16 21:00N 65°36' E 022°12'0 0.0 200 / 161011.3 14.0
2017-Aug-16 18:00N 65°36' E 022°12'0 0.0 170 / 161013.3 14.3
2017-Aug-16 17:00N 65°36' E 022°12'0 0.0 180 / 141014.0 14.6
2017-Aug-16 15:00N 65°36' E 022°12'0 0.0 150 / 191014.7 14.1
2017-Aug-16 14:00N 65°36' E 022°12'0 0.0 180 / 231015.3 15.4
2017-Aug-16 12:00N 65°36' E 022°12'0 0.0 170 / 191016.2 14.6
2017-Aug-16 10:00N 65°36' E 022°12'0 0.0 190 / 171017.0 14.6
2017-Aug-16 09:00N 65°36' E 022°12'0 0.0 180 / 81017.3 14.7
2017-Aug-16 08:00N 65°36' E 022°12'0 0.0 190 / 141017.5 13.3
2017-Aug-16 06:00N 65°36' E 022°12'0 0.0 180 / 121017.4 12.7
2017-Aug-16 05:00N 65°36' E 022°12'0 0.0 170 / 101017.5 13.3
2017-Aug-16 04:00N 65°36' E 022°12'0 0.0 180 / 101017.5 13.2
2017-Aug-16 03:00N 65°36' E 022°12'2 2.4 170 / 101017.9 13.1
2017-Aug-16 02:13N 65°34' E 022°10'2 0.9
2017-Aug-16 00:00N 65°36' E 022°12'0 0.0 180 / 81018.2 13.7
2017-Aug-15 23:00N 65°36' E 022°12'0 0.0 190 / 41018.6 13.9
2017-Aug-15 22:00N 65°36' E 022°12'0 0.0 200 / 101018.5 14.0
2017-Aug-15 21:00N 65°36' E 022°12'0 0.0 190 / 121018.3 14.4
2017-Aug-15 19:00N 65°36' E 022°12'0 0.0 180 / 101019.0 15.1
2017-Aug-15 18:00N 65°36' E 022°12'0 0.0 150 / 41019.4 14.9
2017-Aug-15 16:00N 65°36' E 022°12'0 0.0 160 / 101019.8 15.0
2017-Aug-15 15:00N 65°36' E 022°12'2 1.9 160 / 121020.3 14.7
2017-Aug-15 14:01N 65°34' E 022°10'0 0.0
2017-Aug-15 13:58N 65°34' E 022°10'0 0.0
2017-Aug-15 12:40N 65°34' E 022°10'0 0.0
2017-Aug-15 12:28N 65°34' E 022°10'2 4.0
2017-Aug-15 12:00N 65°36' E 022°12'210.8 210 / 161021.0 15.7
2017-Aug-15 11:49N 65°34' E 022°10'0 0.0
2017-Aug-15 11:28N 65°34' E 022°10'2 4.0
2017-Aug-15 11:00N 65°36' E 022°12'224.9 260 / 81021.2 15.2
2017-Aug-15 10:55N 65°34' E 022°10'0 0.0
2017-Aug-15 10:28N 65°34' E 022°10'2 1.3
2017-Aug-15 09:00N 65°36' E 022°12'0 0.0 240 / 101021.1 14.6
2017-Aug-15 08:00N 65°36' E 022°12'0 0.0 220 / 101020.9 13.6
2017-Aug-15 07:00N 65°36' E 022°12'0 0.0 250 / 61021.0 12.6
2017-Aug-15 06:00N 65°36' E 022°12'0 0.0 230 / 61020.8 12.0
2017-Aug-15 05:00N 65°36' E 022°12'0 0.0 220 / 101020.6 10.8
2017-Aug-15 04:00N 65°36' E 022°12'0 0.0 210 / 61020.0 10.4
2017-Aug-15 03:00N 65°36' E 022°12'0 0.0 260 / 81019.8 9.9
2017-Aug-15 02:00N 65°36' E 022°12'0 0.0 240 / 81019.3 10.2
2017-Aug-15 01:00N 65°36' E 022°12'0 0.0 270 / 81018.9 10.9
2017-Aug-15 00:00N 65°36' E 022°12'0 0.0 270 / 81018.6 11.6
2017-Aug-14 23:00N 65°36' E 022°12'0 0.0 250 / 81018.1 12.1
2017-Aug-14 22:00N 65°36' E 022°12'0 0.0 260 / 41017.8 12.6
2017-Aug-14 21:00N 65°36' E 022°12'0 0.0 240 / 121017.1 13.3
2017-Aug-14 20:00N 65°36' E 022°12'0 0.0 250 / 81016.5 13.7
2017-Aug-14 19:00N 65°36' E 022°12'0 0.0 250 / 61015.8 15.1
2017-Aug-14 18:00N 65°36' E 022°12'0 0.0 290 / 141015.0 16.5
2017-Aug-14 17:00N 65°36' E 022°12'0 0.0 290 / 161014.2 17.0
2017-Aug-14 16:00N 65°36' E 022°12'0 0.0 280 / 161013.7 17.2
2017-Aug-14 15:00N 65°36' E 022°12'0 0.0 290 / 171013.1 17.2
2017-Aug-14 14:00N 65°36' E 022°12'0 0.0 280 / 141012.5 17.3
2017-Aug-14 13:00N 65°36' E 022°12'0 0.0 280 / 191012.0 16.9
2017-Aug-14 12:00N 65°36' E 022°12'0 0.0 290 / 191011.3 16.6
2017-Aug-14 11:00N 65°36' E 022°12'0 0.0 260 / 141010.3 16.2
2017-Aug-14 10:00N 65°36' E 022°12'0 0.0 290 / 171009.6 16.3
2017-Aug-14 09:00N 65°36' E 022°12'0 0.0 290 / 161008.7 15.6
2017-Aug-14 06:00N 65°36' E 022°12'0 0.0 260 / 121006.1 12.3
2017-Aug-14 03:00N 65°36' E 022°12'0 0.0 230 / 121004.8 9.8
2017-Aug-14 02:00N 65°36' E 022°12'0 0.0 230 / 81004.5 9.9
2017-Aug-14 01:00N 65°36' E 022°12'0 0.0 240 / 101004.3 10.4
2017-Aug-14 00:00N 65°36' E 022°12'0 0.0 230 / 61004.1 10.9
2017-Aug-13 23:00N 65°36' E 022°12'0 0.0 250 / 101004.0 11.5
2017-Aug-13 22:00N 65°36' E 022°12'0 0.0 260 / 81003.5 12.1
2017-Aug-13 21:00N 65°36' E 022°12'0 0.0 240 / 101002.9 13.1
2017-Aug-13 20:00N 65°36' E 022°12'0 0.0 260 / 81002.5 14.4
2017-Aug-13 19:00N 65°36' E 022°12'0 0.0 250 / 101001.9 15.3
2017-Aug-13 18:00N 65°36' E 022°12'0 0.0 250 / 81001.3 16.1
2017-Aug-13 17:00N 65°36' E 022°12'0 0.0 280 / 121000.8 16.9
2017-Aug-13 16:00N 65°36' E 022°12'0 0.0 290 / 141000.2 16.7
2017-Aug-13 15:00N 65°36' E 022°12'0 0.0 290 / 14999.9 16.9
2017-Aug-13 14:00N 65°36' E 022°12'0 0.0 290 / 14999.2 17.5
2017-Aug-13 13:00N 65°36' E 022°12'0 0.0 280 / 16998.7 17.4
2017-Aug-13 12:00N 65°36' E 022°12'0 0.0 300 / 10998.4 16.9
2017-Aug-13 09:00N 65°36' E 022°12'0 0.0 290 / 16997.1 14.3
2017-Aug-13 07:00N 65°36' E 022°12'0 0.0 310 / 17996.5 13.5
2017-Aug-13 06:00N 65°36' E 022°12'0 0.0 310 / 16996.2 13.1
2017-Aug-13 04:00N 65°36' E 022°12'0 0.0 300 / 12996.1 13.5
2017-Aug-13 03:00N 65°36' E 022°12'0 0.0 310 / 10995.9 13.6
2017-Aug-13 02:00N 65°36' E 022°12'   300 / 19996.5 14.8

Dump ship's entire track history